Time;durP1;ratioP1;P1;durP2;ratioP2;P2;SDS_P1;SDS_P2;PMS_P1;PMS_P2;Temp;Humidity;BMP_temperature;BMP_pressure;BME280_temperature;BME280_humidity;BME280_pressure;Samples;Min_cycle;Max_cycle;Signal;HPM_P1;HPM_P2
2022/10/26 00:03:58;;;;;;;8.50;4.05;;;9.60;99.90;;;;;;8315253;28;20068;-84
2022/10/26 00:07:59;;;;;;;7.25;4.38;;;9.90;99.90;;;;;;8313105;28;20041;-84
2022/10/26 00:11:59;;;;;;;5.35;4.10;;;9.70;99.90;;;;;;8313443;28;20464;-84
2022/10/26 00:16:00;;;;;;;4.97;3.83;;;9.80;99.90;;;;;;8315467;28;20028;-84
2022/10/26 00:20:01;;;;;;;8.40;4.45;;;9.70;99.90;;;;;;8320024;28;20044;-83
2022/10/26 00:24:01;;;;;;;9.43;5.10;;;9.70;99.90;;;;;;8316963;28;20029;-84
2022/10/26 00:28:02;;;;;;;6.47;4.18;;;9.70;99.90;;;;;;8323666;28;20024;-84
2022/10/26 00:32:03;;;;;;;9.45;4.32;;;10.00;99.90;;;;;;8315610;28;20544;-84
2022/10/26 00:36:03;;;;;;;7.60;5.38;;;9.80;99.90;;;;;;8310791;28;20045;-85
2022/10/26 00:40:04;;;;;;;6.20;4.65;;;9.90;99.90;;;;;;8317379;28;20029;-84
2022/10/26 00:44:42;;;;;;;11.02;4.47;;;9.70;99.90;;;;;;8318496;28;20488;-85
2022/10/26 00:48:47;;;;;;;9.95;4.72;;;9.70;99.90;;;;;;8318133;28;20100;-84
2022/10/26 00:52:48;;;;;;;11.45;4.88;;;9.70;99.90;;;;;;8327518;28;20022;-84
2022/10/26 00:56:52;;;;;;;7.13;4.55;;;9.70;99.90;;;;;;8319393;28;20052;-84
2022/10/26 01:00:53;;;;;;;10.20;4.60;;;9.80;99.90;;;;;;8330849;28;20087;-84
2022/10/26 01:04:54;;;;;;;5.72;4.35;;;9.80;99.90;;;;;;8319192;28;20449;-84
2022/10/26 01:08:55;;;;;;;7.10;4.60;;;9.80;99.90;;;;;;8314013;28;20113;-84
2022/10/26 01:12:57;;;;;;;8.07;4.38;;;10.00;99.90;;;;;;8313832;28;20029;-83
2022/10/26 01:17:23;;;;;;;8.65;4.15;;;10.20;99.90;;;;;;8314511;28;20033;-83
2022/10/26 01:21:32;;;;;;;5.93;4.13;;;10.20;99.90;;;;;;8313938;28;20029;-83
2022/10/26 01:25:44;;;;;;;6.57;4.63;;;10.30;99.90;;;;;;8310719;28;20068;-84
2022/10/26 01:30:15;;;;;;;7.35;4.35;;;10.20;99.90;;;;;;8309411;28;20056;-82
2022/10/26 01:34:40;;;;;;;6.85;4.35;;;10.40;99.90;;;;;;8313217;28;20028;-82
2022/10/26 01:39:04;;;;;;;8.02;4.78;;;10.30;99.90;;;;;;8316643;28;20056;-83
2022/10/26 01:43:07;;;;;;;5.25;4.05;;;10.30;99.90;;;;;;8314619;28;20108;-82
2022/10/26 01:47:14;;;;;;;6.88;4.43;;;10.50;99.90;;;;;;8318140;28;20112;-82
2022/10/26 01:51:16;;;;;;;11.35;4.40;;;10.50;99.90;;;;;;8316827;28;20403;-82
2022/10/26 01:55:51;;;;;;;9.75;4.53;;;10.40;99.90;;;;;;8318782;28;20024;-83
2022/10/26 02:00:11;;;;;;;7.10;4.55;;;10.40;99.90;;;;;;8324917;28;20036;-83
2022/10/26 02:04:39;;;;;;;7.30;4.55;;;10.20;99.90;;;;;;8320843;28;20048;-83
2022/10/26 02:09:04;;;;;;;6.97;4.88;;;10.10;99.90;;;;;;8311168;28;20033;-84
2022/10/26 02:13:31;;;;;;;5.40;4.82;;;9.90;99.90;;;;;;8316571;28;20040;-83
2022/10/26 02:17:49;;;;;;;10.02;4.85;;;9.80;99.90;;;;;;8320598;28;20107;-84
2022/10/26 02:21:55;;;;;;;8.35;5.03;;;9.70;99.90;;;;;;8328103;28;20045;-83
2022/10/26 02:25:59;;;;;;;9.15;4.65;;;9.60;99.90;;;;;;8319760;28;20595;-83
2022/10/26 02:30:01;;;;;;;10.77;4.65;;;9.70;99.90;;;;;;8313935;28;20033;-84
2022/10/26 02:34:06;;;;;;;7.22;4.32;;;9.70;99.90;;;;;;8324753;28;20111;-84
2022/10/26 02:38:10;;;;;;;8.23;4.22;;;9.90;99.90;;;;;;8316146;28;20045;-83
2022/10/26 02:42:14;;;;;;;7.32;3.92;;;9.90;99.90;;;;;;8316646;28;20028;-84
2022/10/26 02:46:19;;;;;;;9.45;4.18;;;9.70;99.90;;;;;;8318340;28;20533;-83
2022/10/26 02:50:25;;;;;;;7.53;4.15;;;9.50;99.90;;;;;;8322500;28;20017;-84
2022/10/26 02:54:30;;;;;;;8.57;4.60;;;9.40;99.90;;;;;;8324665;28;20105;-83
2022/10/26 02:58:36;;;;;;;8.57;5.30;;;9.40;99.90;;;;;;8322248;28;20029;-83
2022/10/26 03:02:36;;;;;;;10.20;5.45;;;9.50;99.90;;;;;;8324042;28;20021;-83
2022/10/26 03:06:37;;;;;;;9.32;5.43;;;9.50;99.90;;;;;;8315736;28;20025;-83
2022/10/26 03:10:41;;;;;;;6.75;3.97;;;9.60;99.90;;;;;;8312681;28;20025;-83
2022/10/26 03:14:41;;;;;;;9.85;4.38;;;10.00;99.90;;;;;;8333711;28;20116;-83
2022/10/26 03:18:42;;;;;;;11.45;4.40;;;9.90;99.90;;;;;;8308840;28;20485;-83
2022/10/26 03:22:43;;;;;;;9.25;4.18;;;10.10;99.90;;;;;;8315040;28;20029;-83
2022/10/26 03:26:43;;;;;;;5.65;3.65;;;10.50;99.90;;;;;;8311107;28;20021;-82
2022/10/26 03:30:44;;;;;;;7.13;4.32;;;10.80;99.90;;;;;;8303536;28;20032;-83
2022/10/26 03:34:44;;;;;;;7.10;4.40;;;10.40;99.90;;;;;;8309645;28;20033;-83
2022/10/26 03:38:45;;;;;;;7.45;4.72;;;10.40;99.90;;;;;;8305779;28;20158;-82
2022/10/26 03:42:45;;;;;;;14.27;5.63;;;10.40;99.90;;;;;;8315092;28;20060;-82
2022/10/26 03:46:46;;;;;;;8.20;4.57;;;10.40;99.90;;;;;;8318656;28;20453;-82
2022/10/26 03:50:46;;;;;;;6.57;4.10;;;10.80;99.90;;;;;;8325822;28;20152;-82
2022/10/26 03:54:47;;;;;;;6.13;3.70;;;11.00;99.90;;;;;;8320629;28;20508;-82
2022/10/26 03:58:48;;;;;;;10.82;4.53;;;11.10;99.90;;;;;;8332044;28;20226;-82
2022/10/26 04:02:58;;;;;;;8.27;4.90;;;11.00;99.90;;;;;;8319875;28;20137;-83
2022/10/26 04:06:59;;;;;;;8.95;4.53;;;10.70;99.90;;;;;;8315283;28;20048;-84
2022/10/26 04:10:59;;;;;;;8.68;4.70;;;10.80;99.90;;;;;;8318234;28;20037;-84
2022/10/26 04:15:00;;;;;;;8.00;5.38;;;10.60;99.90;;;;;;8316039;28;20033;-82
2022/10/26 04:19:01;;;;;;;7.28;5.47;;;10.70;99.90;;;;;;8323374;28;20088;-83
2022/10/26 04:23:04;;;;;;;11.07;5.10;;;10.60;99.90;;;;;;8322264;28;20033;-83
2022/10/26 04:27:04;;;;;;;9.57;4.85;;;10.70;99.90;;;;;;8313530;28;20504;-84
2022/10/26 04:31:05;;;;;;;13.38;5.05;;;10.80;99.90;;;;;;8317952;28;20029;-83
2022/10/26 04:35:05;;;;;;;10.48;5.05;;;11.00;99.90;;;;;;8325712;28;20120;-83
2022/10/26 04:39:06;;;;;;;10.80;5.20;;;10.80;99.90;;;;;;8314193;28;20432;-82
2022/10/26 04:43:07;;;;;;;11.02;5.28;;;10.70;99.90;;;;;;8329706;28;20032;-83
2022/10/26 04:47:07;;;;;;;14.77;5.43;;;10.70;99.90;;;;;;8324987;28;20025;-83
2022/10/26 04:51:08;;;;;;;9.20;5.10;;;10.70;99.90;;;;;;8325360;28;20148;-84
2022/10/26 04:55:08;;;;;;;9.05;5.13;;;10.60;99.90;;;;;;8323861;28;20021;-84
2022/10/26 04:59:09;;;;;;;16.70;9.98;;;10.70;99.90;;;;;;8314040;28;20029;-83
2022/10/26 05:03:09;;;;;;;12.95;7.90;;;10.60;99.90;;;;;;8318748;28;20113;-84
2022/10/26 05:07:10;;;;;;;14.80;9.52;;;10.80;99.90;;;;;;8320126;28;20057;-84
2022/10/26 05:11:10;;;;;;;8.63;6.68;;;10.90;99.90;;;;;;8312980;28;20021;-83
2022/10/26 05:15:13;;;;;;;12.07;6.05;;;11.10;99.90;;;;;;8318031;28;20701;-83
2022/10/26 05:19:14;;;;;;;12.10;7.85;;;11.20;99.90;;;;;;8312408;28;20045;-83
2022/10/26 05:23:17;;;;;;;14.30;8.82;;;11.30;99.90;;;;;;8309201;28;20041;-83
2022/10/26 05:27:17;;;;;;;7.38;4.07;;;11.30;99.90;;;;;;8316299;28;20022;-83
2022/10/26 05:31:19;;;;;;;8.25;3.67;;;11.70;99.90;;;;;;8315666;28;20099;-83
2022/10/26 05:35:19;;;;;;;6.18;4.18;;;11.90;99.90;;;;;;8318341;28;20057;-83
2022/10/26 05:39:21;;;;;;;6.95;3.90;;;11.90;99.90;;;;;;8316437;28;20017;-83
2022/10/26 05:43:23;;;;;;;8.95;4.57;;;12.00;99.90;;;;;;8306161;28;20013;-83
2022/10/26 05:47:23;;;;;;;5.88;3.83;;;12.10;99.90;;;;;;8322718;28;20025;-83
2022/10/26 05:51:24;;;;;;;4.68;3.50;;;12.10;99.90;;;;;;8319834;28;20072;-83
2022/10/26 05:55:25;;;;;;;6.85;4.00;;;12.20;99.90;;;;;;8320947;28;20021;-83
2022/10/26 05:59:25;;;;;;;5.30;4.03;;;12.20;99.90;;;;;;8319009;28;20152;-83
2022/10/26 06:03:35;;;;;;;7.15;4.40;;;12.10;99.90;;;;;;8315629;28;20029;-83
2022/10/26 06:07:36;;;;;;;7.03;4.28;;;12.00;99.90;;;;;;8315362;28;20748;-82
2022/10/26 06:11:37;;;;;;;11.35;4.47;;;11.90;99.90;;;;;;8312393;28;20025;-83
2022/10/26 06:16:07;;;;;;;6.22;4.00;;;11.90;99.90;;;;;;8315892;28;20367;-83
2022/10/26 06:20:36;;;;;;;6.38;3.85;;;11.90;99.90;;;;;;8304435;28;20025;-83
2022/10/26 06:24:45;;;;;;;8.70;4.72;;;11.90;99.90;;;;;;8314835;28;20026;-83
2022/10/26 06:29:05;;;;;;;6.43;4.30;;;11.70;99.90;;;;;;8312787;28;20392;-83
2022/10/26 06:33:07;;;;;;;8.90;4.63;;;11.70;99.90;;;;;;8316979;28;20022;-83
2022/10/26 06:37:09;;;;;;;7.68;4.85;;;11.80;99.90;;;;;;8323211;28;20029;-84
2022/10/26 06:41:14;;;;;;;5.70;3.70;;;11.80;99.90;;;;;;8312299;28;20076;-84
2022/10/26 06:45:16;;;;;;;8.80;3.60;;;11.90;99.90;;;;;;8317247;28;20022;-84
2022/10/26 06:49:33;;;;;;;5.35;3.47;;;11.90;99.90;;;;;;8325991;28;20028;-84
2022/10/26 06:53:40;;;;;;;7.03;3.95;;;12.00;99.90;;;;;;8322697;28;20505;-85
2022/10/26 06:57:42;;;;;;;6.95;3.95;;;12.00;99.90;;;;;;8307246;28;20544;-84
2022/10/26 07:01:43;;;;;;;5.63;3.80;;;12.00;99.90;;;;;;8306072;28;20021;-85
2022/10/26 07:05:44;;;;;;;5.53;3.53;;;12.20;99.90;;;;;;8305640;28;20111;-85
2022/10/26 07:09:45;;;;;;;6.32;3.30;;;12.30;99.90;;;;;;8305648;28;20050;-85
2022/10/26 07:13:45;;;;;;;5.40;3.35;;;12.40;99.90;;;;;;8314800;28;20032;-85
2022/10/26 07:17:47;;;;;;;8.32;3.60;;;12.40;99.90;;;;;;8308005;28;20026;-86
2022/10/26 07:21:48;;;;;;;4.85;3.20;;;12.50;99.90;;;;;;8317053;28;20033;-86
2022/10/26 07:25:49;;;;;;;5.55;3.97;;;12.60;99.90;;;;;;8312699;28;20031;-86
2022/10/26 07:29:49;;;;;;;5.57;3.35;;;12.70;99.90;;;;;;8304766;28;20029;-86
2022/10/26 07:33:52;;;;;;;5.93;3.45;;;12.70;99.90;;;;;;8307452;28;20053;-86
2022/10/26 07:37:57;;;;;;;5.00;3.20;;;12.80;99.90;;;;;;8308278;28;20022;-86
2022/10/26 07:41:58;;;;;;;7.63;3.00;;;12.80;99.90;;;;;;8316390;28;20030;-86
2022/10/26 07:45:58;;;;;;;5.63;2.35;;;12.80;99.90;;;;;;8318619;28;20057;-86
2022/10/26 07:49:59;;;;;;;5.68;1.90;;;13.00;99.90;;;;;;8311077;28;20038;-86
2022/10/26 07:54:00;;;;;;;3.65;2.00;;;13.20;99.90;;;;;;8305516;28;20018;-86
2022/10/26 07:58:00;;;;;;;4.22;2.05;;;13.60;99.90;;;;;;8320401;28;20083;-86
2022/10/26 08:02:01;;;;;;;2.78;1.92;;;13.90;99.90;;;;;;8319295;28;20033;-85
2022/10/26 08:06:03;;;;;;;2.38;1.50;;;14.10;99.90;;;;;;8315099;28;20421;-86
2022/10/26 08:10:04;;;;;;;3.75;2.05;;;14.20;99.90;;;;;;8310711;28;20045;-87
2022/10/26 08:14:05;;;;;;;5.07;1.80;;;14.50;99.90;;;;;;8296857;28;20029;-86
2022/10/26 08:18:06;;;;;;;3.88;1.30;;;14.70;99.90;;;;;;8303882;28;20049;-86
2022/10/26 08:22:06;;;;;;;5.57;1.55;;;14.90;99.90;;;;;;8304549;28;20022;-85
2022/10/26 08:26:10;;;;;;;2.72;1.50;;;15.10;99.90;;;;;;8309432;28;20157;-85
2022/10/26 08:34:14;;;;;;;3.60;1.48;;;15.50;99.90;;;;;;8265398;28;20466;-83
2022/10/26 08:38:14;;;;;;;2.85;1.42;;;15.50;99.90;;;;;;8270940;28;20034;-84
2022/10/26 08:42:39;;;;;;;4.68;1.38;;;15.60;99.90;;;;;;8265452;28;20022;-83
2022/10/26 08:46:45;;;;;;;6.00;1.50;;;15.70;99.90;;;;;;8267403;28;20022;-85
2022/10/26 08:50:51;;;;;;;5.57;1.52;;;15.80;99.90;;;;;;8263672;28;20050;-83
2022/10/26 08:54:56;;;;;;;5.80;1.40;;;15.90;99.90;;;;;;8275079;28;20019;-84
2022/10/26 08:59:01;;;;;;;2.92;1.10;;;16.10;99.90;;;;;;8262434;28;20502;-84
2022/10/26 09:03:12;;;;;;;2.53;1.10;;;16.40;99.90;;;;;;8269282;28;20053;-84
2022/10/26 09:07:37;;;;;;;4.00;1.33;;;17.00;99.90;;;;;;8267402;28;20034;-83
2022/10/26 09:12:05;;;;;;;4.32;1.05;;;17.50;99.90;;;;;;8284163;28;20086;-84
2022/10/26 09:16:14;;;;;;;2.97;1.00;;;17.90;99.90;;;;;;8265853;28;20026;-83
2022/10/26 09:20:40;;;;;;;4.45;1.38;;;18.50;99.90;;;;;;8263683;28;20413;-84
2022/10/26 09:24:53;;;;;;;4.35;1.17;;;19.50;99.90;;;;;;8254575;28;20514;-84
2022/10/26 09:28:56;;;;;;;4.30;1.40;;;19.90;99.90;;;;;;8276691;28;20499;-82
2022/10/26 09:33:13;;;;;;;4.35;1.13;;;20.10;99.90;;;;;;8268028;28;20034;-83
2022/10/26 09:37:27;;;;;;;3.88;1.23;;;20.00;99.90;;;;;;8280527;28;20029;-83
2022/10/26 09:41:40;;;;;;;2.40;1.30;;;19.70;99.90;;;;;;8268740;28;20113;-82
2022/10/26 09:45:46;;;;;;;4.47;1.25;;;20.00;99.90;;;;;;8294512;28;20077;-82
2022/10/26 09:49:52;;;;;;;6.95;1.60;;;20.70;99.90;;;;;;8262208;28;20045;-82
2022/10/26 09:53:56;;;;;;;3.42;1.40;;;20.50;99.90;;;;;;8264061;28;20020;-83
2022/10/26 09:58:02;;;;;;;6.82;1.50;;;20.00;99.90;;;;;;8279178;28;20078;-84
2022/10/26 10:02:32;;;;;;;5.05;1.38;;;19.60;99.90;;;;;;8260469;28;20026;-83
2022/10/26 10:06:33;;;;;;;3.20;1.25;;;19.20;99.90;;;;;;8257767;28;20103;-83
2022/10/26 10:10:33;;;;;;;5.88;1.52;;;18.90;99.90;;;;;;8244403;28;20022;-82
2022/10/26 10:14:39;;;;;;;5.13;1.73;;;18.90;99.90;;;;;;8270578;28;20025;-83
2022/10/26 10:18:41;;;;;;;8.60;1.75;;;18.90;99.90;;;;;;8282717;28;20033;-82
2022/10/26 10:22:59;;;;;;;7.35;2.42;;;19.00;99.90;;;;;;8250859;28;20569;-83
2022/10/26 10:27:15;;;;;;;6.03;2.58;;;19.10;99.90;;;;;;8261519;28;20030;-83
2022/10/26 10:31:25;;;;;;;54.60;24.75;;;19.20;99.90;;;;;;8254445;28;20069;-84
2022/10/26 10:35:28;;;;;;;10.30;4.03;;;19.30;99.90;;;;;;8256465;28;20033;-83
2022/10/26 10:39:40;;;;;;;17.13;11.27;;;19.30;99.90;;;;;;8262471;28;20025;-83
2022/10/26 10:43:47;;;;;;;5.43;2.30;;;19.10;99.90;;;;;;8254753;28;20027;-83
2022/10/26 10:48:12;;;;;;;4.38;2.10;;;19.20;99.90;;;;;;8257979;28;20486;-83
2022/10/26 10:52:29;;;;;;;7.90;1.70;;;19.90;99.90;;;;;;8250707;28;20062;-83
2022/10/26 10:56:52;;;;;;;5.45;1.83;;;20.50;99.90;;;;;;8260802;28;20018;-82
2022/10/26 11:00:55;;;;;;;5.57;1.70;;;20.60;99.90;;;;;;8266270;28;20076;-83
2022/10/26 11:05:11;;;;;;;7.20;1.70;;;21.20;99.90;;;;;;8274434;28;20030;-83
2022/10/26 11:09:15;;;;;;;5.93;1.70;;;22.10;99.90;;;;;;8267661;28;20053;-81
2022/10/26 11:13:22;;;;;;;4.80;1.50;;;23.20;99.90;;;;;;8270220;28;20026;-82
2022/10/26 11:17:26;;;;;;;7.30;1.50;;;23.60;99.90;;;;;;8248635;28;20649;-83
2022/10/26 11:21:29;;;;;;;4.28;1.25;;;24.60;99.90;;;;;;8256612;28;20717;-83
2022/10/26 11:25:37;;;;;;;6.93;1.60;;;25.10;99.90;;;;;;8260724;28;20018;-84
2022/10/26 11:29:41;;;;;;;7.53;1.77;;;24.80;99.90;;;;;;8283136;28;20029;-83
2022/10/26 11:34:11;;;;;;;4.60;1.70;;;24.20;99.90;;;;;;8277338;28;20509;-83
2022/10/26 11:38:50;;;;;;;5.90;1.50;;;24.90;99.90;;;;;;8250188;28;20069;-84
2022/10/26 11:43:29;;;;;;;6.47;1.42;;;24.90;99.90;;;;;;8266494;28;20035;-84
2022/10/26 11:47:42;;;;;;;6.28;1.88;;;24.70;99.90;;;;;;8273778;28;20026;-83
2022/10/26 11:51:55;;;;;;;4.93;1.50;;;23.90;99.90;;;;;;8264056;28;20034;-82
2022/10/26 11:55:57;;;;;;;9.90;1.73;;;22.30;99.90;;;;;;8265306;28;20035;-84
2022/10/26 12:00:16;;;;;;;5.22;1.95;;;21.20;99.90;;;;;;8257767;28;20038;-83
2022/10/26 12:04:20;;;;;;;13.43;8.43;;;20.50;99.90;;;;;;8262859;28;20069;-84
2022/10/26 12:08:29;;;;;;;8.63;2.00;;;20.30;99.90;;;;;;8259202;28;20046;-85
2022/10/26 12:12:49;;;;;;;6.20;1.80;;;20.20;99.90;;;;;;8279722;28;20023;-84
2022/10/26 12:17:04;;;;;;;5.38;1.83;;;20.10;99.90;;;;;;8260738;28;20019;-84
2022/10/26 12:21:07;;;;;;;5.65;1.70;;;20.40;99.90;;;;;;8266946;28;20033;-85
2022/10/26 12:25:20;;;;;;;4.68;1.63;;;20.80;99.90;;;;;;8274002;28;20031;-83
2022/10/26 12:29:31;;;;;;;6.22;2.03;;;21.20;99.90;;;;;;8272182;28;20524;-82
2022/10/26 12:33:49;;;;;;;5.60;1.73;;;21.30;99.90;;;;;;8257959;28;20030;-84
2022/10/26 12:37:49;;;;;;;5.00;1.75;;;21.40;99.90;;;;;;8252874;28;20026;-84
2022/10/26 12:42:08;;;;;;;4.65;1.70;;;21.50;99.90;;;;;;8254681;28;20022;-83
2022/10/26 12:46:11;;;;;;;6.60;1.77;;;21.60;99.90;;;;;;8259715;28;20034;-83
2022/10/26 12:50:12;;;;;;;4.35;2.20;;;21.40;99.90;;;;;;8267380;28;20019;-81
2022/10/26 12:54:38;;;;;;;8.73;2.40;;;21.10;99.90;;;;;;8264015;28;20147;-83
2022/10/26 12:58:51;;;;;;;4.82;1.90;;;20.60;99.90;;;;;;8261703;28;20105;-82
2022/10/26 13:03:30;;;;;;;9.40;2.22;;;20.20;99.90;;;;;;8275117;28;20654;-84
2022/10/26 13:07:38;;;;;;;7.70;1.92;;;19.70;99.90;;;;;;8282557;28;20050;-82
2022/10/26 13:11:46;;;;;;;8.02;2.30;;;19.60;99.90;;;;;;8269742;28;20537;-84
2022/10/26 13:15:55;;;;;;;6.95;1.92;;;19.40;99.90;;;;;;8259913;28;20019;-84
2022/10/26 13:20:02;;;;;;;7.38;2.42;;;19.30;99.90;;;;;;8270164;28;20096;-83
2022/10/26 13:24:07;;;;;;;7.88;2.38;;;19.30;99.90;;;;;;8273545;28;20031;-82
2022/10/26 13:28:29;;;;;;;6.30;2.40;;;19.50;99.90;;;;;;8258487;28;20150;-82
2022/10/26 13:32:54;;;;;;;6.38;2.40;;;19.80;99.90;;;;;;8274296;28;20031;-84
2022/10/26 13:37:14;;;;;;;6.32;2.10;;;20.30;99.90;;;;;;8258397;28;20543;-83
2022/10/26 13:41:27;;;;;;;7.60;2.60;;;20.60;99.90;;;;;;8279281;28;20025;-84
2022/10/26 13:45:47;;;;;;;5.85;2.28;;;20.60;99.90;;;;;;8258508;28;20054;-84
2022/10/26 13:49:52;;;;;;;8.23;2.53;;;20.70;99.90;;;;;;8266602;28;20018;-82
2022/10/26 13:53:58;;;;;;;12.90;2.83;;;20.90;99.90;;;;;;8259529;28;20033;-81
2022/10/26 13:58:24;;;;;;;9.35;2.15;;;20.90;99.90;;;;;;8266787;28;20034;-83
2022/10/26 14:02:27;;;;;;;5.93;2.50;;;20.50;99.90;;;;;;8259722;28;20019;-82
2022/10/26 14:06:34;;;;;;;9.50;2.17;;;20.10;99.90;;;;;;8253811;28;20018;-83
2022/10/26 14:10:41;;;;;;;7.40;2.20;;;19.90;99.90;;;;;;8262348;28;20083;-82
2022/10/26 14:14:42;;;;;;;9.13;2.55;;;20.20;99.90;;;;;;8253741;28;20027;-82
2022/10/26 14:18:43;;;;;;;7.70;2.15;;;20.10;99.90;;;;;;8270888;28;20037;-83
2022/10/26 14:22:44;;;;;;;7.75;2.80;;;19.70;99.90;;;;;;8272589;28;20056;-84
2022/10/26 14:26:45;;;;;;;7.60;2.33;;;19.20;99.90;;;;;;8251081;28;20022;-84
2022/10/26 14:30:46;;;;;;;8.05;2.72;;;18.90;99.90;;;;;;8296865;23;20054;-86
2022/10/26 14:34:46;;;;;;;8.00;2.72;;;18.80;99.90;;;;;;8289969;28;20057;-86
2022/10/26 14:38:52;;;;;;;8.70;2.53;;;18.80;99.90;;;;;;8290134;28;20084;-89
2022/10/26 14:42:56;;;;;;;5.82;2.85;;;19.00;99.90;;;;;;8273446;28;20076;-88
2022/10/26 14:46:57;;;;;;;8.27;2.47;;;19.20;99.90;;;;;;8264153;28;20498;-89
2022/10/26 14:51:15;;;;;;;6.80;2.60;;;19.40;99.90;;;;;;8272580;28;20061;-89
2022/10/26 14:55:16;;;;;;;6.63;2.78;;;19.50;99.90;;;;;;8268562;28;20025;-89
2022/10/26 14:59:22;;;;;;;7.43;2.75;;;19.40;99.90;;;;;;8280971;28;20486;-89
2022/10/26 15:03:23;;;;;;;12.38;3.05;;;19.30;99.90;;;;;;8275235;28;20385;-89
2022/10/26 15:07:37;;;;;;;8.25;2.72;;;19.20;99.90;;;;;;8280369;28;20056;-89
2022/10/26 15:11:41;;;;;;;8.55;2.92;;;19.20;99.90;;;;;;8280754;28;20249;-89
2022/10/26 15:15:42;;;;;;;13.10;2.85;;;19.30;99.90;;;;;;8272876;28;20031;-89
2022/10/26 15:19:44;;;;;;;7.13;2.80;;;19.20;99.90;;;;;;8268409;28;20454;-89
2022/10/26 15:23:44;;;;;;;11.15;3.20;;;18.90;99.90;;;;;;8284739;28;20022;-88
2022/10/26 15:27:46;;;;;;;9.18;2.97;;;18.60;99.90;;;;;;8270147;28;20026;-89
2022/10/26 15:31:59;;;;;;;7.25;3.40;;;18.30;99.90;;;;;;8273266;28;20058;-88
2022/10/26 15:36:16;;;;;;;7.13;3.05;;;18.20;99.90;;;;;;8284940;28;20060;-89
2022/10/26 15:40:18;;;;;;;8.60;3.05;;;17.90;99.90;;;;;;8283965;28;20018;-89
2022/10/26 15:44:21;;;;;;;8.30;3.80;;;17.50;99.90;;;;;;8282086;28;20014;-88
2022/10/26 15:48:27;;;;;;;7.93;2.97;;;17.60;99.90;;;;;;8286726;28;20022;-89
2022/10/26 15:52:29;;;;;;;13.05;3.17;;;17.30;99.90;;;;;;8269159;28;20034;-89
2022/10/26 15:56:31;;;;;;;8.07;2.90;;;16.90;99.90;;;;;;8281590;28;20080;-89
2022/10/26 16:00:31;;;;;;;9.60;3.13;;;16.80;99.90;;;;;;8289456;28;20076;-89
2022/10/26 16:04:32;;;;;;;9.85;3.65;;;16.50;99.90;;;;;;8280669;28;20021;-89
2022/10/26 16:08:32;;;;;;;10.85;3.60;;;16.20;99.90;;;;;;8279281;28;20017;-89
2022/10/26 16:12:33;;;;;;;7.65;3.47;;;16.00;99.90;;;;;;8288704;28;20113;-89
2022/10/26 16:16:33;;;;;;;8.93;3.45;;;15.70;99.90;;;;;;8288143;28;20061;-89
2022/10/26 16:20:34;;;;;;;12.18;3.95;;;15.60;99.90;;;;;;8283693;28;20018;-89
2022/10/26 16:24:35;;;;;;;13.75;4.03;;;15.20;99.90;;;;;;8282030;28;20026;-86
2022/10/26 16:28:36;;;;;;;15.77;4.60;;;15.00;99.90;;;;;;8282276;28;20050;-85
2022/10/26 16:32:37;;;;;;;9.95;3.75;;;14.90;99.90;;;;;;8279487;28;20049;-86
2022/10/26 16:36:37;;;;;;;8.45;4.03;;;14.80;99.90;;;;;;8290463;28;20037;-85
2022/10/26 16:40:41;;;;;;;15.15;3.92;;;15.10;99.90;;;;;;8291418;28;20490;-85
2022/10/26 16:44:41;;;;;;;12.48;4.90;;;14.90;99.90;;;;;;8281040;28;20046;-86
2022/10/26 16:48:44;;;;;;;12.75;4.38;;;14.70;99.90;;;;;;8286876;28;20022;-86
2022/10/26 16:52:45;;;;;;;12.32;4.15;;;14.30;99.90;;;;;;8281504;28;20026;-85
2022/10/26 16:56:45;;;;;;;11.05;4.80;;;13.90;99.90;;;;;;8278502;28;20031;-86
2022/10/26 17:00:53;;;;;;;9.20;4.55;;;13.60;99.90;;;;;;8283544;28;20026;-85
2022/10/26 17:04:54;;;;;;;11.75;5.22;;;13.30;99.90;;;;;;8283909;28;20026;-86
2022/10/26 17:08:54;;;;;;;15.52;6.30;;;13.10;99.90;;;;;;8288862;28;20494;-85
2022/10/26 17:12:55;;;;;;;16.95;6.90;;;13.10;99.90;;;;;;8284009;28;20077;-86
2022/10/26 17:16:56;;;;;;;17.13;7.75;;;12.90;99.90;;;;;;8277216;28;20030;-86
2022/10/26 17:20:56;;;;;;;15.75;8.20;;;12.90;99.90;;;;;;8277681;28;20030;-87
2022/10/26 17:24:57;;;;;;;20.38;9.57;;;12.70;99.90;;;;;;8283432;28;20029;-86
2022/10/26 17:28:58;;;;;;;17.77;8.30;;;12.70;99.90;;;;;;8289248;28;20125;-86
2022/10/26 17:32:59;;;;;;;21.02;8.90;;;12.70;99.90;;;;;;8272818;28;20031;-87
2022/10/26 17:36:59;;;;;;;20.15;9.48;;;12.60;99.90;;;;;;8276034;28;20038;-86
2022/10/26 17:41:01;;;;;;;25.08;12.52;;;12.50;99.90;;;;;;8280545;28;20066;-87
2022/10/26 17:45:02;;;;;;;25.92;12.35;;;12.40;99.90;;;;;;8287816;28;20060;-86
2022/10/26 17:49:03;;;;;;;26.67;13.05;;;12.20;99.90;;;;;;8268941;28;20029;-86
2022/10/26 17:53:04;;;;;;;29.40;14.10;;;12.30;99.90;;;;;;8269740;28;20050;-86
2022/10/26 17:57:05;;;;;;;25.40;10.75;;;12.20;99.90;;;;;;8284467;28;20414;-87
2022/10/26 18:01:07;;;;;;;22.92;8.82;;;12.20;99.90;;;;;;8272057;28;20040;-86
2022/10/26 18:05:08;;;;;;;15.63;9.70;;;12.00;99.90;;;;;;8269670;28;20513;-87
2022/10/26 18:09:09;;;;;;;30.80;13.65;;;11.90;99.90;;;;;;8266785;28;20022;-87
2022/10/26 18:13:09;;;;;;;33.33;16.08;;;11.90;99.90;;;;;;8271571;28;20498;-87
2022/10/26 18:17:10;;;;;;;30.95;14.60;;;11.90;99.90;;;;;;8277275;28;20029;-86
2022/10/26 18:21:12;;;;;;;32.75;11.68;;;11.90;99.90;;;;;;8279775;28;20474;-86
2022/10/26 18:25:32;;;;;;;23.48;10.82;;;11.70;99.90;;;;;;8277456;28;20018;-86
2022/10/26 18:29:33;;;;;;;21.60;10.80;;;11.70;99.90;;;;;;8270615;28;20026;-86
2022/10/26 18:33:34;;;;;;;25.85;11.63;;;11.50;99.90;;;;;;8286540;28;20026;-86
2022/10/26 18:37:34;;;;;;;42.33;17.80;;;11.40;99.90;;;;;;8276563;28;20371;-86
2022/10/26 18:41:35;;;;;;;52.35;24.67;;;11.40;99.90;;;;;;8276882;28;20022;-86
2022/10/26 18:45:35;;;;;;;28.85;13.52;;;11.50;99.90;;;;;;8270236;28;20102;-86
2022/10/26 18:49:40;;;;;;;31.15;15.98;;;11.50;99.90;;;;;;8277466;28;20023;-86
2022/10/26 18:53:43;;;;;;;28.38;14.02;;;11.40;99.90;;;;;;8272430;28;20026;-86
2022/10/26 18:57:44;;;;;;;31.48;14.40;;;11.20;99.90;;;;;;8272057;28;20023;-86
2022/10/26 19:01:45;;;;;;;35.20;14.68;;;11.20;99.90;;;;;;8279900;28;20167;-86
2022/10/26 19:05:46;;;;;;;27.13;12.52;;;11.20;99.90;;;;;;8282254;28;20021;-86
2022/10/26 19:09:46;;;;;;;24.60;10.90;;;11.10;99.90;;;;;;8284159;28;20044;-86
2022/10/26 19:13:49;;;;;;;24.05;12.48;;;11.00;99.90;;;;;;8281089;28;20018;-86
2022/10/26 19:17:49;;;;;;;32.45;11.55;;;11.00;99.90;;;;;;8279458;28;20453;-87
2022/10/26 19:21:50;;;;;;;30.15;13.13;;;10.90;99.90;;;;;;8273776;28;20029;-86
2022/10/26 19:25:54;;;;;;;25.17;10.90;;;10.80;99.90;;;;;;8294983;28;20022;-87
2022/10/26 19:29:55;;;;;;;26.48;11.77;;;10.60;99.90;;;;;;8275590;28;20046;-87
2022/10/26 19:33:56;;;;;;;21.48;12.40;;;10.60;99.90;;;;;;8286309;28;20064;-86
2022/10/26 19:37:56;;;;;;;27.08;13.73;;;10.60;99.90;;;;;;8276394;28;20117;-87
2022/10/26 19:41:57;;;;;;;23.70;12.38;;;10.70;99.90;;;;;;8285077;28;20022;-87
2022/10/26 19:46:03;;;;;;;25.27;11.73;;;10.60;99.90;;;;;;8264652;28;20445;-87
2022/10/26 19:50:06;;;;;;;27.45;11.82;;;10.60;99.90;;;;;;8266391;28;20472;-86
2022/10/26 19:54:06;;;;;;;19.73;10.70;;;10.60;99.90;;;;;;8275801;28;20406;-86
2022/10/26 19:58:07;;;;;;;26.98;10.30;;;10.40;99.90;;;;;;8265664;28;20018;-86
2022/10/26 20:02:07;;;;;;;20.67;9.27;;;10.30;99.90;;;;;;8278497;28;20038;-85
2022/10/26 20:06:12;;;;;;;17.13;8.70;;;10.20;99.90;;;;;;8268976;28;20025;-84
2022/10/26 20:10:13;;;;;;;22.67;10.45;;;10.10;99.90;;;;;;8300848;28;20044;-83
2022/10/26 20:14:14;;;;;;;24.17;11.90;;;10.20;99.90;;;;;;8276193;28;20026;-86
2022/10/26 20:18:14;;;;;;;21.65;12.35;;;10.20;99.90;;;;;;8281862;28;20037;-85
2022/10/26 20:22:15;;;;;;;22.85;11.15;;;10.10;99.90;;;;;;8279912;28;20026;-85
2022/10/26 20:26:16;;;;;;;22.30;9.85;;;10.00;99.90;;;;;;8285477;28;20029;-86
2022/10/26 20:30:16;;;;;;;23.58;9.82;;;10.00;99.90;;;;;;8301443;23;20107;-82
2022/10/26 20:34:17;;;;;;;30.35;12.55;;;9.90;99.90;;;;;;8345613;28;20018;-82
2022/10/26 20:38:20;;;;;;;21.95;9.82;;;9.80;99.90;;;;;;8332513;28;20021;-82
2022/10/26 20:42:25;;;;;;;20.13;10.82;;;9.80;99.90;;;;;;8309453;28;20065;-82
2022/10/26 20:46:26;;;;;;;27.33;11.70;;;9.70;99.90;;;;;;8287817;28;20048;-82
2022/10/26 20:50:29;;;;;;;34.25;13.77;;;9.70;99.90;;;;;;8293011;28;20030;-82
2022/10/26 20:54:38;;;;;;;38.90;15.25;;;9.70;99.90;;;;;;8297139;28;20125;-82
2022/10/26 20:58:54;;;;;;;27.85;13.95;;;9.60;99.90;;;;;;8294630;28;20022;-80
2022/10/26 21:02:55;;;;;;;33.03;14.23;;;9.50;99.90;;;;;;8305071;28;20045;-82
2022/10/26 21:06:55;;;;;;;31.02;14.00;;;9.40;99.90;;;;;;8288212;28;20045;-82
2022/10/26 21:10:56;;;;;;;33.58;12.88;;;9.50;99.90;;;;;;8294844;28;20044;-81
2022/10/26 21:14:56;;;;;;;32.17;13.77;;;9.50;99.90;;;;;;8276569;28;20037;-81
2022/10/26 21:18:59;;;;;;;28.13;14.00;;;9.50;99.90;;;;;;8278830;28;20053;-82